sensor_id;sensor_type;location;lat;lon;timestamp;pressure;altitude;pressure_sealevel;temperature;humidity
12219;BME280;6172;42.646;23.344;2023-04-01T00:01:40;93693.94;;;10.25;95.23
12219;BME280;6172;42.646;23.344;2023-04-01T00:04:07;93698.63;;;10.12;96.22
12219;BME280;6172;42.646;23.344;2023-04-01T00:06:34;93694.34;;;9.98;97.58
12219;BME280;6172;42.646;23.344;2023-04-01T00:09:02;93709.53;;;9.83;99.36
12219;BME280;6172;42.646;23.344;2023-04-01T00:11:28;93724.97;;;10.02;98.39
12219;BME280;6172;42.646;23.344;2023-04-01T00:13:56;93718.03;;;9.57;100.00
12219;BME280;6172;42.646;23.344;2023-04-01T00:16:24;93720.28;;;9.17;100.00
12219;BME280;6172;42.646;23.344;2023-04-01T00:18:51;93713.00;;;9.43;100.00
12219;BME280;6172;42.646;23.344;2023-04-01T00:21:19;93711.97;;;9.37;100.00
12219;BME280;6172;42.646;23.344;2023-04-01T00:23:47;93712.09;;;9.33;100.00
12219;BME280;6172;42.646;23.344;2023-04-01T00:26:14;93714.69;;;9.37;100.00
12219;BME280;6172;42.646;23.344;2023-04-01T00:28:45;93722.72;;;9.56;100.00
12219;BME280;6172;42.646;23.344;2023-04-01T00:31:13;93711.19;;;9.52;100.00
12219;BME280;6172;42.646;23.344;2023-04-01T00:33:42;93720.25;;;9.33;100.00
12219;BME280;6172;42.646;23.344;2023-04-01T00:36:11;93719.16;;;9.31;100.00
12219;BME280;6172;42.646;23.344;2023-04-01T00:38:38;93711.31;;;9.33;100.00
12219;BME280;6172;42.646;23.344;2023-04-01T00:41:06;93706.34;;;9.15;100.00
12219;BME280;6172;42.646;23.344;2023-04-01T00:43:33;93704.38;;;9.16;100.00
12219;BME280;6172;42.646;23.344;2023-04-01T00:46:00;93692.47;;;8.49;100.00
12219;BME280;6172;42.646;23.344;2023-04-01T00:48:30;93691.03;;;8.61;100.00
12219;BME280;6172;42.646;23.344;2023-04-01T00:51:01;93681.19;;;8.51;100.00
12219;BME280;6172;42.646;23.344;2023-04-01T00:53:30;93689.56;;;8.72;100.00
12219;BME280;6172;42.646;23.344;2023-04-01T00:56:01;93687.13;;;8.62;100.00
12219;BME280;6172;42.646;23.344;2023-04-01T00:58:31;93689.94;;;8.74;100.00
12219;BME280;6172;42.646;23.344;2023-04-01T01:01:00;93667.94;;;8.85;100.00
12219;BME280;6172;42.646;23.344;2023-04-01T01:03:27;93670.53;;;9.04;100.00
12219;BME280;6172;42.646;23.344;2023-04-01T01:06:14;93683.72;;;8.90;100.00
12219;BME280;6172;42.646;23.344;2023-04-01T01:09:07;93668.91;;;9.07;100.00
12219;BME280;6172;42.646;23.344;2023-04-01T01:11:41;93653.03;;;9.05;100.00
12219;BME280;6172;42.646;23.344;2023-04-01T01:14:24;93638.78;;;9.01;100.00
12219;BME280;6172;42.646;23.344;2023-04-01T01:16:55;93655.00;;;9.05;100.00
12219;BME280;6172;42.646;23.344;2023-04-01T01:19:46;93644.34;;;9.10;100.00
12219;BME280;6172;42.646;23.344;2023-04-01T01:22:35;93633.09;;;8.96;100.00
12219;BME280;6172;42.646;23.344;2023-04-01T01:25:25;93648.31;;;8.93;100.00
12219;BME280;6172;42.646;23.344;2023-04-01T01:28:09;93633.91;;;9.09;100.00
12219;BME280;6172;42.646;23.344;2023-04-01T01:30:46;93636.63;;;9.09;100.00
12219;BME280;6172;42.646;23.344;2023-04-01T01:33:41;93629.06;;;9.16;100.00
12219;BME280;6172;42.646;23.344;2023-04-01T01:36:16;93614.19;;;9.21;100.00
12219;BME280;6172;42.646;23.344;2023-04-01T01:38:48;93630.03;;;9.22;100.00
12219;BME280;6172;42.646;23.344;2023-04-01T01:41:20;93627.31;;;9.22;100.00
12219;BME280;6172;42.646;23.344;2023-04-01T01:43:50;93622.44;;;9.30;100.00
12219;BME280;6172;42.646;23.344;2023-04-01T01:46:21;93622.25;;;9.37;100.00
12219;BME280;6172;42.646;23.344;2023-04-01T01:48:50;93623.78;;;9.38;97.76
12219;BME280;6172;42.646;23.344;2023-04-01T01:51:21;93615.03;;;9.18;99.42
12219;BME280;6172;42.646;23.344;2023-04-01T01:53:48;93610.97;;;9.10;100.00
12219;BME280;6172;42.646;23.344;2023-04-01T01:56:17;93601.69;;;9.23;100.00
12219;BME280;6172;42.646;23.344;2023-04-01T01:58:47;93616.75;;;9.12;100.00
12219;BME280;6172;42.646;23.344;2023-04-01T02:01:18;93601.34;;;9.34;100.00
12219;BME280;6172;42.646;23.344;2023-04-01T02:03:46;93595.63;;;9.44;96.15
12219;BME280;6172;42.646;23.344;2023-04-01T02:06:16;93581.72;;;9.42;93.05
12219;BME280;6172;42.646;23.344;2023-04-01T02:08:47;93588.47;;;9.50;91.68
12219;BME280;6172;42.646;23.344;2023-04-01T02:11:19;93585.66;;;9.54;91.53
12219;BME280;6172;42.646;23.344;2023-04-01T02:13:51;93581.09;;;9.63;88.75
12219;BME280;6172;42.646;23.344;2023-04-01T02:16:22;93579.44;;;9.66;88.52
12219;BME280;6172;42.646;23.344;2023-04-01T02:18:51;93578.69;;;9.65;89.07
12219;BME280;6172;42.646;23.344;2023-04-01T02:21:21;93585.56;;;9.82;87.99
12219;BME280;6172;42.646;23.344;2023-04-01T02:23:52;93583.06;;;9.88;86.82
12219;BME280;6172;42.646;23.344;2023-04-01T02:26:20;93578.34;;;9.51;88.83
12219;BME280;6172;42.646;23.344;2023-04-01T02:28:48;93567.34;;;9.54;88.08
12219;BME280;6172;42.646;23.344;2023-04-01T02:31:16;93574.78;;;9.66;88.28
12219;BME280;6172;42.646;23.344;2023-04-01T02:33:44;93582.16;;;9.78;89.67
12219;BME280;6172;42.646;23.344;2023-04-01T02:36:13;93584.56;;;9.89;87.35
12219;BME280;6172;42.646;23.344;2023-04-01T02:38:41;93583.22;;;9.97;86.62
12219;BME280;6172;42.646;23.344;2023-04-01T02:41:10;93576.78;;;10.03;84.55
12219;BME280;6172;42.646;23.344;2023-04-01T02:43:38;93588.66;;;9.97;84.66
12219;BME280;6172;42.646;23.344;2023-04-01T02:46:05;93581.56;;;9.99;84.63
12219;BME280;6172;42.646;23.344;2023-04-01T02:48:32;93590.91;;;9.98;85.02
12219;BME280;6172;42.646;23.344;2023-04-01T02:50:59;93589.84;;;9.96;85.25
12219;BME280;6172;42.646;23.344;2023-04-01T02:53:25;93589.06;;;10.08;84.22
12219;BME280;6172;42.646;23.344;2023-04-01T02:55:52;93589.84;;;10.21;81.52
12219;BME280;6172;42.646;23.344;2023-04-01T02:58:21;93590.91;;;10.23;80.33
12219;BME280;6172;42.646;23.344;2023-04-01T03:00:48;93591.22;;;10.13;83.71
12219;BME280;6172;42.646;23.344;2023-04-01T03:03:15;93603.75;;;10.10;84.87
12219;BME280;6172;42.646;23.344;2023-04-01T03:05:42;93610.06;;;10.07;86.45
12219;BME280;6172;42.646;23.344;2023-04-01T03:08:09;93612.94;;;10.04;87.76
12219;BME280;6172;42.646;23.344;2023-04-01T03:10:37;93609.34;;;10.07;88.27
12219;BME280;6172;42.646;23.344;2023-04-01T03:13:03;93610.72;;;10.11;88.15
12219;BME280;6172;42.646;23.344;2023-04-01T03:15:33;93615.09;;;9.96;89.60
12219;BME280;6172;42.646;23.344;2023-04-01T03:17:59;93610.84;;;10.08;86.93
12219;BME280;6172;42.646;23.344;2023-04-01T03:20:29;93616.09;;;10.02;86.37
12219;BME280;6172;42.646;23.344;2023-04-01T03:22:56;93616.69;;;9.81;88.43
12219;BME280;6172;42.646;23.344;2023-04-01T03:25:23;93631.63;;;9.89;88.93
12219;BME280;6172;42.646;23.344;2023-04-01T03:27:50;93623.88;;;9.88;90.31
12219;BME280;6172;42.646;23.344;2023-04-01T03:30:17;93621.16;;;9.75;91.87
12219;BME280;6172;42.646;23.344;2023-04-01T03:32:45;93633.22;;;9.74;97.84
12219;BME280;6172;42.646;23.344;2023-04-01T03:35:13;93634.28;;;9.77;97.01
12219;BME280;6172;42.646;23.344;2023-04-01T03:37:40;93619.97;;;9.89;83.32
12219;BME280;6172;42.646;23.344;2023-04-01T03:40:08;93609.75;;;9.93;93.04
12219;BME280;6172;42.646;23.344;2023-04-01T03:42:35;93615.28;;;9.89;93.13
12219;BME280;6172;42.646;23.344;2023-04-01T03:45:03;93607.91;;;10.02;89.15
12219;BME280;6172;42.646;23.344;2023-04-01T03:47:30;93598.44;;;10.07;86.95
12219;BME280;6172;42.646;23.344;2023-04-01T03:49:58;93586.91;;;10.15;86.16
12219;BME280;6172;42.646;23.344;2023-04-01T03:52:26;93575.44;;;10.20;82.44
12219;BME280;6172;42.646;23.344;2023-04-01T03:54:53;93565.44;;;10.17;82.10
12219;BME280;6172;42.646;23.344;2023-04-01T03:57:20;93544.44;;;10.05;90.15
12219;BME280;6172;42.646;23.344;2023-04-01T03:59:47;93527.22;;;10.21;87.45
12219;BME280;6172;42.646;23.344;2023-04-01T04:02:13;93518.38;;;10.29;85.00
12219;BME280;6172;42.646;23.344;2023-04-01T04:04:41;93523.38;;;10.31;85.28
12219;BME280;6172;42.646;23.344;2023-04-01T04:07:09;93512.72;;;10.24;88.09
12219;BME280;6172;42.646;23.344;2023-04-01T04:09:36;93506.69;;;10.29;89.45
12219;BME280;6172;42.646;23.344;2023-04-01T04:12:03;93517.06;;;10.34;87.65
12219;BME280;6172;42.646;23.344;2023-04-01T04:14:31;93508.09;;;9.99;91.57
12219;BME280;6172;42.646;23.344;2023-04-01T04:16:58;93494.34;;;9.90;92.62
12219;BME280;6172;42.646;23.344;2023-04-01T04:19:25;93498.72;;;9.88;94.06
12219;BME280;6172;42.646;23.344;2023-04-01T04:21:52;93503.19;;;9.69;95.87
12219;BME280;6172;42.646;23.344;2023-04-01T04:24:20;93493.72;;;9.49;99.34
12219;BME280;6172;42.646;23.344;2023-04-01T04:26:47;93484.13;;;9.32;100.00
12219;BME280;6172;42.646;23.344;2023-04-01T04:29:13;93495.78;;;9.32;100.00
12219;BME280;6172;42.646;23.344;2023-04-01T04:31:40;93483.34;;;9.06;100.00
12219;BME280;6172;42.646;23.344;2023-04-01T04:34:08;93482.81;;;9.24;100.00
12219;BME280;6172;42.646;23.344;2023-04-01T04:36:35;93478.28;;;9.21;100.00
12219;BME280;6172;42.646;23.344;2023-04-01T04:39:02;93466.41;;;9.15;100.00
12219;BME280;6172;42.646;23.344;2023-04-01T04:41:30;93465.69;;;8.86;100.00
12219;BME280;6172;42.646;23.344;2023-04-01T04:43:57;93460.94;;;9.02;100.00
12219;BME280;6172;42.646;23.344;2023-04-01T04:46:25;93462.16;;;9.14;100.00
12219;BME280;6172;42.646;23.344;2023-04-01T04:48:57;93453.03;;;9.33;99.14
12219;BME280;6172;42.646;23.344;2023-04-01T04:51:24;93437.59;;;9.30;96.66
12219;BME280;6172;42.646;23.344;2023-04-01T04:53:51;93438.56;;;9.11;99.27
12219;BME280;6172;42.646;23.344;2023-04-01T04:56:18;93429.22;;;9.12;99.68
12219;BME280;6172;42.646;23.344;2023-04-01T04:58:47;93432.28;;;9.26;98.62
12219;BME280;6172;42.646;23.344;2023-04-01T05:01:16;93434.44;;;9.31;96.97
12219;BME280;6172;42.646;23.344;2023-04-01T05:03:44;93424.56;;;9.25;97.54
12219;BME280;6172;42.646;23.344;2023-04-01T05:06:12;93442.50;;;9.35;98.79
12219;BME280;6172;42.646;23.344;2023-04-01T05:08:40;93424.97;;;9.36;100.00
12219;BME280;6172;42.646;23.344;2023-04-01T05:11:10;93429.22;;;9.24;100.00
12219;BME280;6172;42.646;23.344;2023-04-01T05:13:38;93430.00;;;9.25;100.00
12219;BME280;6172;42.646;23.344;2023-04-01T05:16:09;93429.88;;;9.28;100.00
12219;BME280;6172;42.646;23.344;2023-04-01T05:18:36;93425.06;;;9.20;100.00
12219;BME280;6172;42.646;23.344;2023-04-01T05:21:03;93428.22;;;9.18;100.00
12219;BME280;6172;42.646;23.344;2023-04-01T05:23:31;93409.53;;;9.20;100.00
12219;BME280;6172;42.646;23.344;2023-04-01T05:26:02;93388.69;;;9.05;100.00
12219;BME280;6172;42.646;23.344;2023-04-01T05:28:29;93377.66;;;8.71;100.00
12219;BME280;6172;42.646;23.344;2023-04-01T05:30:58;93400.97;;;9.09;100.00
12219;BME280;6172;42.646;23.344;2023-04-01T05:33:28;93412.69;;;9.31;100.00
12219;BME280;6172;42.646;23.344;2023-04-01T05:35:56;93404.53;;;9.19;100.00
12219;BME280;6172;42.646;23.344;2023-04-01T05:38:23;93405.56;;;9.71;100.00
12219;BME280;6172;42.646;23.344;2023-04-01T05:40:49;93400.88;;;11.14;93.07
12219;BME280;6172;42.646;23.344;2023-04-01T05:43:17;93386.78;;;12.57;74.58
12219;BME280;6172;42.646;23.344;2023-04-01T05:45:43;93403.28;;;13.82;64.58
12219;BME280;6172;42.646;23.344;2023-04-01T05:48:10;93385.84;;;15.23;55.56
12219;BME280;6172;42.646;23.344;2023-04-01T05:50:41;93372.53;;;14.11;56.88
12219;BME280;6172;42.646;23.344;2023-04-01T05:53:08;93385.16;;;16.26;49.89
12219;BME280;6172;42.646;23.344;2023-04-01T05:55:36;93376.31;;;16.62;47.31
12219;BME280;6172;42.646;23.344;2023-04-01T05:58:04;93369.50;;;17.03;45.78
12219;BME280;6172;42.646;23.344;2023-04-01T06:00:31;93372.78;;;18.01;43.45
12219;BME280;6172;42.646;23.344;2023-04-01T06:02:58;93354.94;;;19.63;40.01
12219;BME280;6172;42.646;23.344;2023-04-01T06:05:27;93351.91;;;20.05;38.44
12219;BME280;6172;42.646;23.344;2023-04-01T06:07:59;93346.13;;;20.09;36.92
12219;BME280;6172;42.646;23.344;2023-04-01T06:10:37;93356.25;;;18.48;38.48
12219;BME280;6172;42.646;23.344;2023-04-01T06:13:12;93371.09;;;16.64;42.07
12219;BME280;6172;42.646;23.344;2023-04-01T06:15:55;93360.16;;;17.21;41.77
12219;BME280;6172;42.646;23.344;2023-04-01T06:18:41;93373.78;;;16.79;42.31
12219;BME280;6172;42.646;23.344;2023-04-01T06:24:47;93370.44;;;15.11;47.22
12219;BME280;6172;42.646;23.344;2023-04-01T06:27:25;93367.19;;;14.31;48.91
12219;BME280;6172;42.646;23.344;2023-04-01T06:30:06;93378.16;;;13.84;50.72
12219;BME280;6172;42.646;23.344;2023-04-01T06:32:52;93376.03;;;13.88;51.25
12219;BME280;6172;42.646;23.344;2023-04-01T06:35:38;93351.97;;;13.92;51.25
12219;BME280;6172;42.646;23.344;2023-04-01T06:38:19;93359.72;;;13.61;52.48
12219;BME280;6172;42.646;23.344;2023-04-01T06:43:59;93339.75;;;11.99;59.82
12219;BME280;6172;42.646;23.344;2023-04-01T06:46:40;93330.66;;;12.02;60.98
12219;BME280;6172;42.646;23.344;2023-04-01T06:49:24;93332.59;;;12.20;61.90
12219;BME280;6172;42.646;23.344;2023-04-01T06:51:59;93358.09;;;12.26;62.51
12219;BME280;6172;42.646;23.344;2023-04-01T06:54:32;93361.59;;;12.26;62.14
12219;BME280;6172;42.646;23.344;2023-04-01T06:57:05;93344.25;;;11.66;67.22
12219;BME280;6172;42.646;23.344;2023-04-01T06:59:41;93335.44;;;11.05;75.41
12219;BME280;6172;42.646;23.344;2023-04-01T07:02:19;93322.47;;;10.87;80.62
12219;BME280;6172;42.646;23.344;2023-04-01T07:04:48;93318.53;;;10.88;83.88
12219;BME280;6172;42.646;23.344;2023-04-01T07:07:21;93332.06;;;11.01;85.30
12219;BME280;6172;42.646;23.344;2023-04-01T07:09:52;93336.34;;;11.11;85.48
12219;BME280;6172;42.646;23.344;2023-04-01T07:12:28;93337.19;;;11.29;85.59
12219;BME280;6172;42.646;23.344;2023-04-01T07:15:05;93318.19;;;11.17;87.98
12219;BME280;6172;42.646;23.344;2023-04-01T07:17:39;93318.31;;;11.04;91.15
12219;BME280;6172;42.646;23.344;2023-04-01T07:20:13;93324.25;;;11.12;92.86
12219;BME280;6172;42.646;23.344;2023-04-01T07:22:45;93321.06;;;11.13;93.12
12219;BME280;6172;42.646;23.344;2023-04-01T07:25:15;93319.72;;;11.27;92.54
12219;BME280;6172;42.646;23.344;2023-04-01T07:27:44;93345.00;;;11.58;90.39
12219;BME280;6172;42.646;23.344;2023-04-01T07:30:16;93336.47;;;11.47;90.28
12219;BME280;6172;42.646;23.344;2023-04-01T07:32:47;93322.13;;;11.64;90.46
12219;BME280;6172;42.646;23.344;2023-04-01T07:35:23;93329.88;;;11.75;88.82
12219;BME280;6172;42.646;23.344;2023-04-01T07:38:19;93332.31;;;11.91;86.80
12219;BME280;6172;42.646;23.344;2023-04-01T07:40:52;93331.56;;;11.99;83.55
12219;BME280;6172;42.646;23.344;2023-04-01T07:43:43;93323.97;;;12.03;84.14
12219;BME280;6172;42.646;23.344;2023-04-01T07:46:21;93315.91;;;12.09;83.45
12219;BME280;6172;42.646;23.344;2023-04-01T07:48:59;93313.66;;;12.16;82.44
12219;BME280;6172;42.646;23.344;2023-04-01T07:51:32;93310.59;;;12.23;82.29
12219;BME280;6172;42.646;23.344;2023-04-01T07:54:07;93316.81;;;12.42;80.84
12219;BME280;6172;42.646;23.344;2023-04-01T07:56:40;93317.84;;;12.44;81.04
12219;BME280;6172;42.646;23.344;2023-04-01T07:59:16;93323.47;;;12.59;80.08
12219;BME280;6172;42.646;23.344;2023-04-01T08:01:54;93316.81;;;12.42;81.17
12219;BME280;6172;42.646;23.344;2023-04-01T08:04:36;93302.53;;;12.38;81.80
12219;BME280;6172;42.646;23.344;2023-04-01T08:07:11;93300.28;;;12.36;82.29
12219;BME280;6172;42.646;23.344;2023-04-01T08:09:45;93302.09;;;12.39;81.81
12219;BME280;6172;42.646;23.344;2023-04-01T08:12:26;93289.03;;;12.43;81.28
12219;BME280;6172;42.646;23.344;2023-04-01T08:15:01;93281.56;;;12.62;79.81
12219;BME280;6172;42.646;23.344;2023-04-01T08:17:42;93294.63;;;12.67;79.92
12219;BME280;6172;42.646;23.344;2023-04-01T08:20:23;93287.13;;;12.77;78.60
12219;BME280;6172;42.646;23.344;2023-04-01T08:22:57;93273.22;;;12.65;79.72
12219;BME280;6172;42.646;23.344;2023-04-01T08:25:28;93275.91;;;12.74;78.42
12219;BME280;6172;42.646;23.344;2023-04-01T08:28:02;93260.91;;;12.70;79.63
12219;BME280;6172;42.646;23.344;2023-04-01T08:30:37;93247.94;;;13.12;76.62
12219;BME280;6172;42.646;23.344;2023-04-01T08:33:14;93248.34;;;13.20;75.35
12219;BME280;6172;42.646;23.344;2023-04-01T08:35:47;93222.75;;;13.32;73.82
12219;BME280;6172;42.646;23.344;2023-04-01T08:38:20;93227.38;;;13.64;73.49
12219;BME280;6172;42.646;23.344;2023-04-01T08:40:57;93223.81;;;14.68;67.99
12219;BME280;6172;42.646;23.344;2023-04-01T08:44:02;93222.59;;;15.53;61.42
12219;BME280;6172;42.646;23.344;2023-04-01T08:46:49;93195.66;;;16.74;57.17
12219;BME280;6172;42.646;23.344;2023-04-01T08:49:38;93190.03;;;17.36;53.04
12219;BME280;6172;42.646;23.344;2023-04-01T08:52:31;93189.84;;;17.98;49.37
12219;BME280;6172;42.646;23.344;2023-04-01T08:55:13;93175.69;;;18.77;46.57
12219;BME280;6172;42.646;23.344;2023-04-01T08:57:56;93195.50;;;19.14;44.48
12219;BME280;6172;42.646;23.344;2023-04-01T09:00:32;93199.78;;;19.04;43.63
12219;BME280;6172;42.646;23.344;2023-04-01T09:03:22;93183.69;;;18.36;44.42
12219;BME280;6172;42.646;23.344;2023-04-01T09:08:57;93181.94;;;18.61;45.44
12219;BME280;6172;42.646;23.344;2023-04-01T09:11:39;93195.38;;;18.09;45.85
12219;BME280;6172;42.646;23.344;2023-04-01T09:14:45;93176.31;;;17.42;45.49
12219;BME280;6172;42.646;23.344;2023-04-01T09:17:34;93168.34;;;17.55;46.42
12219;BME280;6172;42.646;23.344;2023-04-01T09:23:10;93175.38;;;18.31;43.65
12219;BME280;6172;42.646;23.344;2023-04-01T09:25:56;93172.16;;;16.78;45.10
12219;BME280;6172;42.646;23.344;2023-04-01T09:28:33;93164.47;;;17.78;43.10
12219;BME280;6172;42.646;23.344;2023-04-01T09:31:13;93160.50;;;16.58;44.39
12219;BME280;6172;42.646;23.344;2023-04-01T09:37:25;93144.03;;;17.42;43.04
12219;BME280;6172;42.646;23.344;2023-04-01T09:40:17;93151.91;;;17.18;41.66
12219;BME280;6172;42.646;23.344;2023-04-01T09:42:55;93154.97;;;17.25;41.81
12219;BME280;6172;42.646;23.344;2023-04-01T09:45:37;93141.19;;;17.25;41.94
12219;BME280;6172;42.646;23.344;2023-04-01T09:48:16;93146.06;;;17.47;41.94
12219;BME280;6172;42.646;23.344;2023-04-01T09:50:54;93136.81;;;17.50;41.64
12219;BME280;6172;42.646;23.344;2023-04-01T09:53:36;93114.25;;;16.98;42.38
12219;BME280;6172;42.646;23.344;2023-04-01T09:59:43;93122.47;;;17.41;41.56
12219;BME280;6172;42.646;23.344;2023-04-01T10:05:52;93118.47;;;18.17;40.07
12219;BME280;6172;42.646;23.344;2023-04-01T10:08:56;93115.16;;;17.85;40.23
12219;BME280;6172;42.646;23.344;2023-04-01T10:11:52;93102.50;;;17.46;41.19
12219;BME280;6172;42.646;23.344;2023-04-01T10:15:12;93090.50;;;17.54;42.13
12219;BME280;6172;42.646;23.344;2023-04-01T10:18:32;93077.53;;;17.71;41.93
12219;BME280;6172;42.646;23.344;2023-04-01T10:21:16;93087.38;;;18.11;41.25
12219;BME280;6172;42.646;23.344;2023-04-01T10:24:05;93092.88;;;18.05;41.64
12219;BME280;6172;42.646;23.344;2023-04-01T10:26:53;93091.38;;;18.21;42.17
12219;BME280;6172;42.646;23.344;2023-04-01T10:30:05;93099.44;;;18.79;40.73
12219;BME280;6172;42.646;23.344;2023-04-01T10:33:17;93065.75;;;17.76;42.21
12219;BME280;6172;42.646;23.344;2023-04-01T10:36:17;93085.59;;;17.80;42.00
12219;BME280;6172;42.646;23.344;2023-04-01T10:39:34;93086.38;;;18.14;42.39
12219;BME280;6172;42.646;23.344;2023-04-01T10:48:24;93068.06;;;18.00;42.69
12219;BME280;6172;42.646;23.344;2023-04-01T10:51:22;93050.97;;;17.57;42.86
12219;BME280;6172;42.646;23.344;2023-04-01T10:54:17;93052.97;;;16.92;44.41
12219;BME280;6172;42.646;23.344;2023-04-01T10:56:59;93051.97;;;16.95;45.41
12219;BME280;6172;42.646;23.344;2023-04-01T10:59:46;93051.00;;;16.62;45.98
12219;BME280;6172;42.646;23.344;2023-04-01T11:02:45;93033.84;;;16.72;45.88
12219;BME280;6172;42.646;23.344;2023-04-01T11:08:58;93027.53;;;16.30;48.45
12219;BME280;6172;42.646;23.344;2023-04-01T11:11:51;93026.09;;;16.71;44.04
12219;BME280;6172;42.646;23.344;2023-04-01T11:14:59;93030.66;;;16.85;45.79
12219;BME280;6172;42.646;23.344;2023-04-01T11:17:50;93033.44;;;16.90;43.98
12219;BME280;6172;42.646;23.344;2023-04-01T11:20:46;93029.81;;;16.68;40.82
12219;BME280;6172;42.646;23.344;2023-04-01T11:23:43;93033.31;;;16.68;38.84
12219;BME280;6172;42.646;23.344;2023-04-01T11:26:29;93052.88;;;16.81;38.87
12219;BME280;6172;42.646;23.344;2023-04-01T11:29:09;93059.53;;;16.64;40.11
12219;BME280;6172;42.646;23.344;2023-04-01T11:31:53;93074.38;;;16.41;40.81
12219;BME280;6172;42.646;23.344;2023-04-01T11:34:43;93081.91;;;16.15;42.35
12219;BME280;6172;42.646;23.344;2023-04-01T11:37:28;93079.81;;;16.04;43.63
12219;BME280;6172;42.646;23.344;2023-04-01T11:40:06;93109.25;;;15.73;43.31
12219;BME280;6172;42.646;23.344;2023-04-01T11:42:46;93143.31;;;15.41;47.87
12219;BME280;6172;42.646;23.344;2023-04-01T11:45:24;93151.31;;;14.84;50.69
12219;BME280;6172;42.646;23.344;2023-04-01T11:48:03;93193.31;;;14.46;60.42
12219;BME280;6172;42.646;23.344;2023-04-01T11:50:44;93215.13;;;13.97;67.97
12219;BME280;6172;42.646;23.344;2023-04-01T11:53:25;93256.75;;;13.40;88.16
12219;BME280;6172;42.646;23.344;2023-04-01T11:56:09;93275.78;;;12.69;100.00
12219;BME280;6172;42.646;23.344;2023-04-01T11:59:02;93299.97;;;11.71;100.00
12219;BME280;6172;42.646;23.344;2023-04-01T12:01:39;93303.81;;;11.25;100.00
12219;BME280;6172;42.646;23.344;2023-04-01T12:04:38;93317.69;;;11.00;100.00
12219;BME280;6172;42.646;23.344;2023-04-01T12:07:23;93292.56;;;10.75;100.00
12219;BME280;6172;42.646;23.344;2023-04-01T12:09:59;93276.81;;;10.39;100.00
12219;BME280;6172;42.646;23.344;2023-04-01T12:12:33;93295.72;;;10.33;100.00
12219;BME280;6172;42.646;23.344;2023-04-01T12:15:19;93302.50;;;10.60;100.00
12219;BME280;6172;42.646;23.344;2023-04-01T12:17:56;93291.50;;;10.63;100.00
12219;BME280;6172;42.646;23.344;2023-04-01T12:20:38;93303.28;;;11.00;100.00
12219;BME280;6172;42.646;23.344;2023-04-01T12:23:39;93297.72;;;11.12;100.00
12219;BME280;6172;42.646;23.344;2023-04-01T12:26:27;93282.19;;;11.31;100.00
12219;BME280;6172;42.646;23.344;2023-04-01T12:29:14;93262.28;;;11.12;100.00
12219;BME280;6172;42.646;23.344;2023-04-01T12:31:52;93278.75;;;11.48;100.00
12219;BME280;6172;42.646;23.344;2023-04-01T12:34:41;93260.88;;;11.56;100.00
12219;BME280;6172;42.646;23.344;2023-04-01T12:37:13;93268.13;;;11.95;100.00
12219;BME280;6172;42.646;23.344;2023-04-01T12:39:59;93281.50;;;12.02;100.00
12219;BME280;6172;42.646;23.344;2023-04-01T12:42:51;93294.97;;;12.06;100.00
12219;BME280;6172;42.646;23.344;2023-04-01T12:45:30;93321.38;;;11.73;100.00
12219;BME280;6172;42.646;23.344;2023-04-01T12:51:22;93307.53;;;11.58;100.00
12219;BME280;6172;42.646;23.344;2023-04-01T12:57:02;93306.00;;;11.30;100.00
12219;BME280;6172;42.646;23.344;2023-04-01T12:59:42;93306.38;;;11.20;100.00
12219;BME280;6172;42.646;23.344;2023-04-01T13:02:13;93315.25;;;11.02;100.00
12219;BME280;6172;42.646;23.344;2023-04-01T13:05:01;93297.25;;;11.05;100.00
12219;BME280;6172;42.646;23.344;2023-04-01T13:07:45;93285.13;;;10.66;100.00
12219;BME280;6172;42.646;23.344;2023-04-01T13:10:24;93281.00;;;10.92;100.00
12219;BME280;6172;42.646;23.344;2023-04-01T13:16:04;93249.81;;;10.93;100.00
12219;BME280;6172;42.646;23.344;2023-04-01T13:18:41;93226.16;;;10.81;100.00
12219;BME280;6172;42.646;23.344;2023-04-01T13:21:21;93217.34;;;10.68;100.00
12219;BME280;6172;42.646;23.344;2023-04-01T13:23:56;93217.72;;;10.97;100.00
12219;BME280;6172;42.646;23.344;2023-04-01T13:26:32;93224.88;;;11.13;100.00
12219;BME280;6172;42.646;23.344;2023-04-01T13:29:06;93218.56;;;11.70;100.00
12219;BME280;6172;42.646;23.344;2023-04-01T13:31:50;93215.13;;;12.29;100.00
12219;BME280;6172;42.646;23.344;2023-04-01T13:34:30;93190.00;;;12.66;100.00
12219;BME280;6172;42.646;23.344;2023-04-01T13:37:14;93186.16;;;13.06;100.00
12219;BME280;6172;42.646;23.344;2023-04-01T13:39:57;93178.31;;;13.37;100.00
12219;BME280;6172;42.646;23.344;2023-04-01T13:42:33;93168.34;;;13.48;100.00
12219;BME280;6172;42.646;23.344;2023-04-01T13:45:12;93152.66;;;13.72;100.00
12219;BME280;6172;42.646;23.344;2023-04-01T14:00:03;93146.66;;;14.12;100.00
12219;BME280;6172;42.646;23.344;2023-04-01T14:02:57;93141.00;;;13.86;100.00
12219;BME280;6172;42.646;23.344;2023-04-01T14:05:43;93129.94;;;13.95;100.00
12219;BME280;6172;42.646;23.344;2023-04-01T14:08:23;93114.16;;;13.23;100.00
12219;BME280;6172;42.646;23.344;2023-04-01T14:11:02;93121.44;;;13.03;100.00
12219;BME280;6172;42.646;23.344;2023-04-01T14:13:41;93118.75;;;13.17;100.00
12219;BME280;6172;42.646;23.344;2023-04-01T14:16:47;93108.28;;;13.16;100.00
12219;BME280;6172;42.646;23.344;2023-04-01T14:19:27;93108.78;;;13.29;100.00
12219;BME280;6172;42.646;23.344;2023-04-01T14:22:08;93123.53;;;13.46;100.00
12219;BME280;6172;42.646;23.344;2023-04-01T14:24:57;93100.78;;;12.78;100.00
12219;BME280;6172;42.646;23.344;2023-04-01T14:27:41;93108.22;;;12.78;100.00
12219;BME280;6172;42.646;23.344;2023-04-01T14:30:30;93112.69;;;12.33;100.00
12219;BME280;6172;42.646;23.344;2023-04-01T14:33:05;93102.63;;;12.07;100.00
12219;BME280;6172;42.646;23.344;2023-04-01T14:38:33;93113.56;;;11.38;100.00
12219;BME280;6172;42.646;23.344;2023-04-01T14:41:17;93110.81;;;11.47;100.00
12219;BME280;6172;42.646;23.344;2023-04-01T14:49:42;93120.22;;;11.46;100.00
12219;BME280;6172;42.646;23.344;2023-04-01T14:52:15;93113.25;;;11.54;100.00